createdAt,value
2019-05-17T10:45:15.134Z,29.32
2019-05-17T10:47:50.262Z,29.40
2019-05-17T10:50:23.929Z,29.45
2019-05-17T10:53:00.198Z,28.90
2019-05-17T10:55:32.825Z,31.12
2019-05-17T10:58:06.273Z,29.70
2019-05-17T11:00:41.442Z,33.85
2019-05-17T11:03:15.152Z,33.60
2019-05-17T11:05:50.261Z,28.80
2019-05-17T11:08:23.613Z,29.05
2019-05-17T11:10:59.433Z,28.92
2019-05-17T11:13:32.135Z,31.87
2019-05-17T11:16:05.536Z,29.65
2019-05-17T11:18:38.892Z,30.00
2019-05-17T11:21:13.099Z,33.53
2019-05-17T11:23:46.482Z,32.25
2019-05-17T11:26:19.875Z,31.48
2019-05-17T11:28:53.227Z,28.67
2019-05-17T11:31:26.629Z,29.50
2019-05-17T11:34:00.142Z,27.65
2019-05-17T11:36:33.582Z,26.15
2019-05-17T11:39:08.559Z,28.83
2019-05-17T11:41:42.356Z,34.27
2019-05-17T11:44:15.970Z,27.82
2019-05-17T11:46:50.226Z,31.70
2019-05-17T11:49:24.460Z,28.98
2019-05-17T11:51:58.308Z,28.98
2019-05-17T11:54:31.939Z,27.07
2019-05-17T11:57:05.415Z,31.73
2019-05-17T11:59:38.859Z,29.42
2019-05-17T12:02:15.781Z,28.02
2019-05-17T12:04:49.260Z,26.70
2019-05-17T12:07:23.062Z,26.73
2019-05-17T12:09:57.469Z,26.15
2019-05-17T12:12:31.027Z,24.72
2019-05-17T12:15:04.510Z,28.02
2019-05-17T12:17:37.984Z,23.22
2019-05-17T12:20:14.422Z,24.87
2019-05-17T12:22:47.831Z,26.07
2019-05-17T12:25:21.432Z,25.00
2019-05-17T12:27:54.858Z,23.40
2019-05-17T12:30:28.275Z,24.55
2019-05-17T12:33:01.625Z,23.60
2019-05-17T12:35:35.023Z,23.27
2019-05-17T12:38:08.420Z,21.07
2019-05-17T12:40:41.868Z,26.70
2019-05-17T12:43:15.316Z,25.17
2019-05-17T12:46:00.112Z,26.40
2019-05-17T12:48:25.738Z,26.70
2019-05-17T12:50:59.181Z,25.25
2019-05-17T12:53:33.985Z,25.82
2019-05-17T12:56:07.506Z,26.93
2019-05-17T12:58:41.953Z,27.65
2019-05-17T13:01:15.376Z,26.07
2019-05-17T13:03:48.848Z,28.10
2019-05-17T13:06:23.729Z,27.85
2019-05-17T13:08:57.161Z,28.60
2019-05-17T13:11:30.591Z,27.35
2019-05-17T13:14:04.040Z,26.85
2019-05-17T13:16:37.505Z,28.25
2019-05-17T13:19:11.473Z,29.27
2019-05-17T13:21:45.108Z,29.65
2019-05-17T13:24:18.598Z,28.20
2019-05-17T13:26:52.127Z,129.53
2019-05-17T13:29:25.604Z,37.83
2019-05-17T13:31:59.067Z,31.12
2019-05-17T13:34:32.555Z,27.80
2019-05-17T13:37:06.276Z,25.15
2019-05-17T13:39:41.070Z,25.72
2019-05-17T13:42:14.477Z,28.60
2019-05-17T13:44:47.872Z,23.98
2019-05-17T13:47:21.311Z,27.67
2019-05-17T13:49:54.708Z,30.15
2019-05-17T13:52:28.135Z,25.55
2019-05-17T13:55:02.400Z,34.83
2019-05-17T13:57:36.115Z,31.27
2019-05-17T14:00:11.557Z,29.60
2019-05-17T14:02:44.978Z,23.25
2019-05-17T14:05:18.614Z,30.57
2019-05-17T14:07:52.234Z,25.32
2019-05-17T14:10:28.715Z,24.60
2019-05-17T14:13:00.726Z,24.63
2019-05-17T14:15:34.369Z,24.65
2019-05-17T14:18:08.441Z,25.23
2019-05-17T14:20:41.907Z,22.15
2019-05-17T14:23:15.344Z,22.90
2019-05-17T14:25:48.776Z,23.02
2019-05-17T14:28:22.258Z,22.85
2019-05-17T14:30:57.065Z,23.47
2019-05-17T14:33:31.577Z,22.37
2019-05-17T14:36:04.952Z,21.07
2019-05-17T14:38:38.453Z,22.20
2019-05-17T14:41:11.880Z,25.62
2019-05-17T14:43:45.317Z,25.72
2019-05-17T14:46:18.759Z,22.17
2019-05-17T14:48:52.267Z,22.32
2019-05-17T14:51:25.699Z,22.82
2019-05-17T14:53:59.158Z,20.70
2019-05-17T14:56:32.617Z,20.90
2019-05-17T14:59:06.431Z,20.60
2019-05-17T15:27:24.758Z,24.47
2019-05-17T15:29:58.231Z,24.32
2019-05-17T15:32:31.675Z,29.12
2019-05-17T15:35:05.672Z,24.02
2019-05-17T15:37:39.089Z,20.12
2019-05-17T15:40:12.753Z,23.90
2019-05-17T15:42:46.215Z,20.52
2019-05-17T15:45:20.050Z,23.18
2019-05-17T15:47:53.472Z,25.82
2019-05-17T15:50:26.943Z,25.48
2019-05-17T15:53:00.353Z,23.30
2019-05-17T15:55:33.759Z,22.32
2019-05-17T15:58:07.221Z,21.55
2019-05-17T16:00:40.760Z,20.02
2019-05-17T16:03:14.265Z,21.42
2019-05-17T16:05:47.718Z,19.37
2019-05-17T16:08:21.498Z,20.60
2019-05-17T16:10:54.924Z,20.97
2019-05-17T16:13:28.852Z,18.75
2019-05-17T16:16:02.297Z,19.50
2019-05-17T16:18:36.003Z,20.77
2019-05-17T16:21:09.581Z,20.92
2019-05-17T16:23:43.055Z,20.32
2019-05-17T16:26:16.487Z,20.25
2019-05-17T16:28:49.930Z,24.50
2019-05-17T16:31:23.386Z,20.88
2019-05-17T16:33:57.826Z,23.90
2019-05-17T16:36:31.252Z,20.32
2019-05-17T16:39:08.319Z,20.85
2019-05-17T16:41:40.724Z,20.77
2019-05-17T16:44:14.755Z,27.98
2019-05-17T16:46:51.821Z,20.00
2019-05-17T16:49:43.627Z,22.07
2019-05-17T16:52:17.826Z,28.17
2019-05-17T16:54:52.727Z,26.35
2019-05-17T16:57:26.493Z,21.17
2019-05-17T17:00:00.451Z,21.05
2019-05-17T17:02:34.027Z,27.13
2019-05-17T17:05:07.834Z,25.17
2019-05-17T17:07:41.249Z,23.42
2019-05-17T17:10:15.093Z,24.92
2019-05-17T17:12:48.797Z,26.45
2019-05-17T17:15:22.829Z,23.85
2019-05-17T17:17:56.262Z,24.15
2019-05-17T17:20:29.984Z,25.35
2019-05-17T17:23:03.448Z,24.02
2019-05-17T17:25:36.881Z,22.60
2019-05-17T17:28:10.288Z,22.00
2019-05-17T17:30:43.750Z,26.05
2019-05-17T17:33:17.603Z,33.08
2019-05-17T17:35:51.034Z,30.90
2019-05-17T17:38:24.462Z,31.65
2019-05-17T17:40:57.891Z,26.95
2019-05-17T17:43:31.337Z,34.38
2019-05-17T17:46:04.751Z,34.63
2019-05-17T17:48:38.150Z,32.50
2019-05-17T17:51:11.818Z,34.48
2019-05-17T17:53:45.235Z,33.08
2019-05-17T17:56:18.631Z,37.85
2019-05-17T17:58:53.048Z,37.63
2019-05-17T18:01:26.487Z,37.53
2019-05-17T18:03:59.937Z,39.78
2019-05-17T18:06:33.385Z,39.83
2019-05-17T18:09:07.690Z,53.28
2019-05-17T18:11:41.107Z,45.05
2019-05-17T18:14:14.569Z,44.63
2019-05-17T18:16:48.026Z,42.60
2019-05-17T18:19:21.649Z,47.08
2019-05-17T18:21:55.082Z,55.63
2019-05-17T18:24:28.472Z,55.73
2019-05-17T18:27:01.906Z,55.48
2019-05-17T18:29:35.315Z,60.05
2019-05-17T18:32:08.744Z,66.33
2019-05-17T18:34:42.847Z,64.15
2019-05-17T18:37:16.295Z,67.55
2019-05-17T18:39:49.710Z,68.55
2019-05-17T18:42:23.110Z,69.65
2019-05-17T18:44:56.594Z,66.37
2019-05-17T18:47:30.072Z,70.17
2019-05-17T18:50:03.515Z,65.45
2019-05-17T18:52:37.114Z,64.55
2019-05-17T18:55:10.606Z,63.17
2019-05-17T18:57:44.164Z,71.70
2019-05-17T19:00:18.547Z,68.42
2019-05-17T19:02:52.061Z,67.95
2019-05-17T19:05:25.504Z,65.40
2019-05-17T19:07:59.137Z,57.75
2019-05-17T19:10:32.619Z,59.50
2019-05-17T19:13:06.068Z,51.58
2019-05-17T19:15:39.507Z,55.15
2019-05-17T19:18:13.001Z,54.20
2019-05-17T19:20:47.524Z,54.20
2019-05-17T19:23:21.088Z,48.28
2019-05-17T19:25:54.538Z,59.42
2019-05-17T19:28:28.216Z,60.25
2019-05-17T19:31:04.068Z,62.85
2019-05-17T19:33:39.238Z,59.73
2019-05-17T19:36:12.835Z,64.90
2019-05-17T19:38:48.180Z,64.87
2019-05-17T19:41:21.660Z,62.35
2019-05-17T19:43:57.115Z,65.17
2019-05-17T19:46:30.549Z,68.12
2019-05-17T19:49:05.016Z,67.65
2019-05-17T19:51:38.494Z,64.27
2019-05-17T19:54:11.961Z,65.15
2019-05-17T19:56:45.332Z,72.85
2019-05-17T19:59:18.831Z,76.60
2019-05-17T20:01:52.286Z,76.30
2019-05-17T20:04:25.784Z,93.20
2019-05-17T20:06:59.162Z,83.67
2019-05-17T20:09:32.623Z,80.53
2019-05-17T20:12:06.094Z,77.70
2019-05-17T20:14:39.520Z,79.60
2019-05-17T20:17:12.973Z,78.83
2019-05-17T20:19:46.483Z,70.20
2019-05-17T20:22:19.933Z,66.55
2019-05-17T20:24:53.422Z,57.25
2019-05-17T20:27:26.913Z,60.70
2019-05-17T20:30:00.507Z,62.83
2019-05-17T20:32:35.461Z,60.92
2019-05-17T20:35:10.351Z,54.95
2019-05-17T20:37:43.754Z,54.40
2019-05-17T20:40:18.088Z,60.55
2019-05-17T20:42:51.512Z,50.52
2019-05-17T20:45:33.263Z,57.50
2019-05-17T20:48:10.083Z,51.77
2019-05-17T20:50:43.566Z,53.05
2019-05-17T20:53:19.216Z,53.70
2019-05-17T20:55:52.059Z,55.17
2019-05-17T20:58:25.493Z,49.88
2019-05-17T21:00:59.067Z,51.98
2019-05-17T21:03:32.431Z,51.30
2019-05-17T21:06:06.488Z,56.92
2019-05-17T21:08:46.002Z,52.43
2019-05-17T21:11:15.279Z,52.38
2019-05-17T21:13:48.723Z,51.80
2019-05-17T21:16:22.239Z,48.17
2019-05-17T21:18:55.659Z,52.67
2019-05-17T21:21:29.119Z,51.13
2019-05-17T21:24:02.615Z,57.55
2019-05-17T21:26:36.125Z,56.37
2019-05-17T21:29:09.535Z,50.92
2019-05-17T21:31:42.944Z,51.60
2019-05-17T21:34:16.325Z,56.20
2019-05-17T21:36:49.804Z,59.80
2019-05-17T21:39:24.253Z,56.50
2019-05-17T21:41:57.727Z,53.23
2019-05-17T21:44:31.107Z,53.40
2019-05-17T21:47:05.205Z,52.27
2019-05-17T21:49:38.749Z,54.60
2019-05-17T21:52:13.088Z,55.73
2019-05-17T21:54:46.590Z,50.52
2019-05-17T21:57:20.390Z,54.25
2019-05-17T21:59:53.830Z,58.58
2019-05-17T22:02:27.290Z,59.95
2019-05-17T22:05:00.718Z,57.08
2019-05-17T22:07:34.233Z,55.55
2019-05-17T22:10:07.819Z,55.33
2019-05-17T22:12:41.281Z,61.15
2019-05-17T22:15:15.768Z,72.15
2019-05-17T22:17:49.217Z,78.95
2019-05-17T22:20:22.677Z,74.00
2019-05-17T22:22:55.951Z,69.87
2019-05-17T22:25:29.343Z,73.62
2019-05-17T22:28:03.065Z,72.50
2019-05-17T22:30:36.426Z,63.58
2019-05-17T22:33:09.715Z,71.25
2019-05-17T22:35:43.064Z,56.98
2019-05-17T22:38:16.436Z,56.00
2019-05-17T22:40:49.740Z,61.77
2019-05-17T22:43:23.125Z,60.60
2019-05-17T22:45:56.328Z,62.60
2019-05-17T22:48:29.705Z,63.02
2019-05-17T22:51:03.030Z,59.18
2019-05-17T22:53:36.367Z,60.67
2019-05-17T22:56:09.837Z,59.75
2019-05-17T22:58:44.552Z,55.48
2019-05-17T23:01:17.793Z,53.05
2019-05-17T23:03:51.212Z,59.42
2019-05-17T23:06:24.600Z,56.63
2019-05-17T23:08:58.031Z,58.13
2019-05-17T23:11:31.242Z,61.08
2019-05-17T23:14:04.692Z,58.17
2019-05-17T23:16:50.581Z,56.10
2019-05-17T23:19:13.107Z,57.48
2019-05-17T23:21:46.393Z,54.95
2019-05-17T23:24:20.787Z,54.03
2019-05-17T23:26:54.158Z,55.70
2019-05-17T23:29:27.430Z,58.75
2019-05-17T23:32:00.708Z,56.75
2019-05-17T23:34:34.083Z,56.18
2019-05-17T23:37:07.882Z,60.63
2019-05-17T23:39:41.232Z,59.53
2019-05-17T23:42:14.501Z,57.83
2019-05-17T23:44:48.988Z,53.45
2019-05-17T23:47:22.333Z,53.15
2019-05-17T23:49:55.723Z,57.75
2019-05-17T23:52:29.075Z,60.98
2019-05-17T23:55:02.548Z,60.52
2019-05-17T23:57:35.992Z,56.15
